Aeroporto :
LOGIN :

Iscrizione | Disclaimer

   EN    FR    IT 

 










Sommario :    VFR   VFR Marginale   IFR   IFR Intensivo   IFR Molto Intensivo
Visibilità : 
Base nubi : 
>= 8 km
>= 3000ft
5 / 8 km
1000 / 3000 ft
1500m / 5 km
500 / 1000 ft
800 / 1500m
200 / 500 ft
< 800m
< 200 ft
Simboli :   Temporali  Nebbia  Neve Forte  Precipitazioni Forti  Vento > 20 kt
SIGMETs :   Varie  Temporali  Ghiacco  Turbolenza  Onda orograficha  Ceneri Vulcaniche







- Altitudine del aeroporto : 353 ft
- Codice IATA : ZAG


LDZA - Zagreb Pleso

ULTIMO METAR :
  • 161900Z 02002KT CAVOK 03/M01 Q1030 NOSIG

METARs OBSOLETI :
  • 161830Z 11002KT CAVOK 05/M01 Q1030 NOSIG
  • 161800Z 10003KT CAVOK 06/M01 Q1030 NOSIG
  • 161730Z 10004KT CAVOK 06/M01 Q1030 NOSIG
  • 161700Z 00000KT CAVOK 08/M01 Q1030 NOSIG
  • 161630Z 00000KT CAVOK 11/M00 Q1030 NOSIG

TAF TAF LDZA
Valido dal 16 a 18 ore il 17 a 18 ore UTC


161725Z 1618/1718 VRB02KT CAVOK TX13/1713Z TNM03/1705Z
BECMG 1702/1704 3000 BR
PROB30
TEMPO 1704/1708 0800 BCFG
BECMG 1708/1710 CAVOK
ATIS : +385 1 6-259-214
Nessun NOTAM noto per questo aeroporto.



MetMap, La meteo Aeronautica in un colpo d'occhio ! - Copyright ORBIFLY Dicembre 2007 - Disclaimer

ORBIFLY MET'MAP TEAM :

Programmazione e sviluppo : Alexandra Zaïnal
Concezione e sviluppo : Baudouin d'Aumeries
Co-Programmazione e sviluppo : Marc-Olivier Méhu
Supporto tecnico e logistico : Manuel Goepfert
Aiuto per la traduzione : Arnaldo La Scala

Contatto : metmap@orbifly.com




FONTI E CREDITI :

   NOAA